createdAt,value
2022-12-11T00:00:27.075Z,4.70
2022-12-11T00:02:54.994Z,4.70
2022-12-11T00:05:24.191Z,4.77
2022-12-11T00:08:00.255Z,4.70
2022-12-11T00:10:38.236Z,4.63
2022-12-11T00:13:06.549Z,4.80
2022-12-11T00:15:34.454Z,4.70
2022-12-11T00:18:02.162Z,4.40
2022-12-11T00:20:31.167Z,4.70
2022-12-11T00:22:58.870Z,4.17
2022-12-11T00:25:26.562Z,4.80
2022-12-11T00:27:54.266Z,4.30
2022-12-11T00:30:21.962Z,4.70
2022-12-11T00:32:53.182Z,4.30
2022-12-11T00:35:22.877Z,4.47
2022-12-11T00:37:53.214Z,4.47
2022-12-11T00:43:24.284Z,4.63
2022-12-11T00:46:02.509Z,5.37
2022-12-11T00:48:38.467Z,5.10
2022-12-11T00:51:16.787Z,4.53
2022-12-11T00:53:55.781Z,4.50
2022-12-11T00:56:31.737Z,4.77
2022-12-11T00:59:00.526Z,4.50
2022-12-11T01:01:36.638Z,4.87
2022-12-11T01:04:12.367Z,4.93
2022-12-11T01:06:49.261Z,4.93
2022-12-11T01:09:42.994Z,4.60
2022-12-11T01:12:19.131Z,4.37
2022-12-11T01:14:55.668Z,4.20
2022-12-11T01:17:36.079Z,4.77
2022-12-11T01:20:16.619Z,4.67
2022-12-11T01:22:54.624Z,4.70
2022-12-11T01:25:23.870Z,4.90
2022-12-11T01:27:52.829Z,4.80
2022-12-11T01:30:21.836Z,4.90
2022-12-11T01:32:50.024Z,4.63
2022-12-11T01:35:18.798Z,4.87
2022-12-11T01:37:47.674Z,4.30
2022-12-11T01:40:16.442Z,4.63
2022-12-11T01:42:45.569Z,4.80
2022-12-11T01:45:29.872Z,4.93
2022-12-11T01:48:02.446Z,4.73
2022-12-11T01:50:31.102Z,4.70
2022-12-11T01:52:58.933Z,5.30
2022-12-11T01:55:26.683Z,5.67
2022-12-11T01:57:55.938Z,5.63
2022-12-11T02:00:24.733Z,5.70
2022-12-11T02:02:53.139Z,5.23
2022-12-11T02:05:21.971Z,4.90
2022-12-11T02:07:53.132Z,5.07
2022-12-11T02:10:21.786Z,5.30
2022-12-11T02:12:59.590Z,5.30
2022-12-11T02:15:34.188Z,4.97
2022-12-11T02:18:12.502Z,5.30
2022-12-11T02:20:50.242Z,5.40
2022-12-11T02:23:38.582Z,5.27
2022-12-11T02:26:17.018Z,5.20
2022-12-11T02:28:48.467Z,5.00
2022-12-11T02:31:24.127Z,4.83
2022-12-11T02:33:55.059Z,5.50
2022-12-11T02:36:25.478Z,5.10
2022-12-11T02:38:54.609Z,5.30
2022-12-11T03:18:06.069Z,5.50
2022-12-11T03:20:39.140Z,5.53
2022-12-11T03:23:14.055Z,4.93
2022-12-11T03:25:46.073Z,4.70
2022-12-11T03:28:16.653Z,5.00
2022-12-11T03:30:45.783Z,4.77
2022-12-11T03:33:19.433Z,5.00
2022-12-11T03:35:51.492Z,5.23
2022-12-11T03:38:22.540Z,4.73
2022-12-11T03:40:54.270Z,5.00
2022-12-11T03:43:22.893Z,5.10
2022-12-11T03:45:52.042Z,4.73
2022-12-11T03:48:22.535Z,5.13
2022-12-11T03:50:50.773Z,4.80
2022-12-11T03:53:19.942Z,4.83
2022-12-11T03:55:48.409Z,5.10
2022-12-11T03:58:16.090Z,5.10
2022-12-11T04:00:43.764Z,4.80
2022-12-11T04:03:14.952Z,5.30
2022-12-11T04:05:45.827Z,5.00
2022-12-11T04:08:14.185Z,4.87
2022-12-11T04:10:42.516Z,5.00
2022-12-11T04:13:10.463Z,4.90
2022-12-11T04:15:38.120Z,4.67
2022-12-11T04:18:23.488Z,4.80
2022-12-11T04:21:23.498Z,5.23
2022-12-11T04:24:08.885Z,4.73
2022-12-11T04:26:36.579Z,4.40
2022-12-11T04:29:04.247Z,4.63
2022-12-11T04:31:32.104Z,4.60
2022-12-11T04:33:59.848Z,4.73
2022-12-11T04:36:28.896Z,4.60
2022-12-11T04:38:57.584Z,4.17
2022-12-11T04:41:25.982Z,4.47
2022-12-11T04:43:54.298Z,4.10
2022-12-11T04:46:24.743Z,4.60
2022-12-11T04:48:57.599Z,4.60
2022-12-11T04:51:26.816Z,4.80
2022-12-11T04:53:57.107Z,4.50
2022-12-11T04:56:25.929Z,4.60
2022-12-11T04:59:06.660Z,4.50
2022-12-11T05:01:43.058Z,4.37
2022-12-11T05:04:21.500Z,4.67
2022-12-11T05:06:59.110Z,4.33
2022-12-11T05:09:38.769Z,4.30
2022-12-11T05:12:16.315Z,4.50
2022-12-11T05:14:54.639Z,4.20
2022-12-11T05:17:33.118Z,4.00
2022-12-11T05:20:11.289Z,3.97
2022-12-11T05:22:49.260Z,4.53
2022-12-11T05:25:29.934Z,4.27
2022-12-11T05:28:06.250Z,4.37
2022-12-11T05:30:44.430Z,4.60
2022-12-11T05:33:20.849Z,4.37
2022-12-11T05:35:58.905Z,4.40
2022-12-11T05:38:36.095Z,4.40
2022-12-11T05:41:15.863Z,4.80
2022-12-11T05:43:53.648Z,4.97
2022-12-11T05:46:32.548Z,4.70
2022-12-11T05:49:10.815Z,4.93
2022-12-11T05:51:49.226Z,5.43
2022-12-11T05:54:27.858Z,4.90
2022-12-11T05:57:07.685Z,4.80
2022-12-11T05:59:49.585Z,5.10
2022-12-11T06:02:26.869Z,5.03
2022-12-11T06:05:04.453Z,5.10
2022-12-11T06:07:41.101Z,5.33
2022-12-11T06:10:19.610Z,5.47
2022-12-11T06:13:01.259Z,5.20
2022-12-11T06:15:29.085Z,4.00
2022-12-11T06:17:56.736Z,4.70
2022-12-11T06:20:24.403Z,4.43
2022-12-11T06:22:52.067Z,4.00
2022-12-11T06:25:19.806Z,3.00
2022-12-11T06:27:48.843Z,1.97
2022-12-11T06:30:23.884Z,1.40
2022-12-11T06:33:07.390Z,1.20
2022-12-11T06:35:41.685Z,1.10
2022-12-11T06:38:20.750Z,1.10
2022-12-11T06:41:04.853Z,0.90
2022-12-11T06:43:45.862Z,1.00
2022-12-11T06:46:28.008Z,0.93
2022-12-11T06:49:04.630Z,1.20
2022-12-11T06:51:42.585Z,1.20
2022-12-11T06:54:10.695Z,1.20
2022-12-11T06:56:47.212Z,1.47
2022-12-11T06:59:27.530Z,1.10
2022-12-11T07:01:55.905Z,1.00
2022-12-11T07:04:24.865Z,0.83
2022-12-11T07:06:53.324Z,1.10
2022-12-11T07:09:22.595Z,0.97
2022-12-11T07:11:50.871Z,0.90
2022-12-11T07:14:31.976Z,0.90
2022-12-11T07:17:07.675Z,1.00
2022-12-11T07:19:45.896Z,1.00
2022-12-11T07:22:15.184Z,1.00
2022-12-11T07:24:43.287Z,1.20
2022-12-11T07:27:19.438Z,1.00
2022-12-11T07:29:59.560Z,1.00
2022-12-11T07:32:39.734Z,1.70
2022-12-11T07:35:17.914Z,1.30
2022-12-11T07:37:55.445Z,1.30
2022-12-11T07:40:34.553Z,1.20
2022-12-11T07:43:02.729Z,1.70
2022-12-11T07:45:31.968Z,1.87
2022-12-11T07:48:00.860Z,1.80
2022-12-11T07:50:29.361Z,1.63
2022-12-11T07:52:58.281Z,1.87
2022-12-11T07:55:34.235Z,1.47
2022-12-11T07:58:02.059Z,1.57
2022-12-11T08:00:31.463Z,1.80
2022-12-11T08:03:00.246Z,1.40
2022-12-11T08:05:29.379Z,1.80
2022-12-11T08:07:57.220Z,1.77
2022-12-11T08:10:25.065Z,1.70
2022-12-11T08:12:52.811Z,1.50
2022-12-11T08:15:20.521Z,1.80
2022-12-11T08:17:49.565Z,1.60
2022-12-11T08:20:17.509Z,1.57
2022-12-11T08:22:45.257Z,1.30
2022-12-11T08:25:13.264Z,1.60
2022-12-11T08:27:41.187Z,1.77
2022-12-11T08:30:10.026Z,1.80
2022-12-11T08:32:37.825Z,1.70
2022-12-11T08:35:08.255Z,1.70
2022-12-11T08:37:36.129Z,1.60
2022-12-11T08:40:04.082Z,1.33
2022-12-11T08:42:31.768Z,1.43
2022-12-11T08:44:59.777Z,1.47
2022-12-11T08:47:29.551Z,1.50
2022-12-11T08:49:57.342Z,1.67
2022-12-11T08:52:26.539Z,1.50
2022-12-11T08:54:54.280Z,1.30
2022-12-11T08:57:22.396Z,1.67
2022-12-11T08:59:50.449Z,1.27
2022-12-11T09:02:18.176Z,1.53
2022-12-11T09:04:45.994Z,1.80
2022-12-11T09:07:13.795Z,2.20
2022-12-11T09:09:43.665Z,2.40
2022-12-11T09:12:12.218Z,2.03
2022-12-11T09:14:40.616Z,2.03
2022-12-11T09:17:09.110Z,1.50
2022-12-11T09:19:37.513Z,1.53
2022-12-11T09:22:06.045Z,1.30
2022-12-11T09:24:37.450Z,1.20
2022-12-11T09:27:11.600Z,1.40
2022-12-11T09:29:42.976Z,1.23
2022-12-11T09:32:11.414Z,1.50
2022-12-11T09:34:39.137Z,1.43
2022-12-11T09:37:08.016Z,1.40
2022-12-11T09:39:40.927Z,1.53
2022-12-11T09:48:17.866Z,1.20
2022-12-11T09:50:46.727Z,1.70
2022-12-11T09:53:17.656Z,1.60
2022-12-11T09:55:50.238Z,1.60
2022-12-11T09:58:26.165Z,1.70
2022-12-11T10:00:57.149Z,1.60
2022-12-11T10:03:40.974Z,1.50
2022-12-11T10:06:14.727Z,1.73
2022-12-11T10:08:46.576Z,1.20
2022-12-11T10:11:29.064Z,1.40
2022-12-11T10:14:04.050Z,1.60
2022-12-11T10:16:36.843Z,1.37
2022-12-11T10:19:06.030Z,1.57
2022-12-11T10:21:41.546Z,1.50
2022-12-11T10:24:29.354Z,1.43
2022-12-11T10:27:15.619Z,1.70
2022-12-11T10:29:43.318Z,1.60
2022-12-11T10:32:17.834Z,1.60
2022-12-11T10:34:48.865Z,1.60
2022-12-11T10:37:16.514Z,1.30
2022-12-11T10:39:44.182Z,1.43
2022-12-11T10:42:18.511Z,1.40
2022-12-11T10:44:57.340Z,1.73
2022-12-11T10:47:31.203Z,1.67
2022-12-11T10:50:02.206Z,2.00
2022-12-11T10:52:33.300Z,1.90
2022-12-11T10:55:02.995Z,1.73
2022-12-11T10:57:32.546Z,1.60
2022-12-11T11:00:00.579Z,1.40
2022-12-11T11:02:30.247Z,1.30
2022-12-11T11:05:01.344Z,1.50
2022-12-11T11:07:30.382Z,1.83
2022-12-11T11:10:07.279Z,1.80
2022-12-11T11:12:39.333Z,1.60
2022-12-11T11:15:11.816Z,1.80
2022-12-11T11:17:52.953Z,1.50
2022-12-11T11:20:26.267Z,1.63
2022-12-11T11:22:56.492Z,1.80
2022-12-11T11:25:25.628Z,2.17
2022-12-11T11:27:54.899Z,1.50
2022-12-11T11:30:24.938Z,1.77
2022-12-11T11:32:55.912Z,1.67
2022-12-11T11:35:27.023Z,1.30
2022-12-11T11:38:01.244Z,1.57
2022-12-11T11:40:30.863Z,1.83
2022-12-11T12:06:29.740Z,1.57
2022-12-11T12:09:02.766Z,1.60
2022-12-11T12:11:41.304Z,1.50
2022-12-11T12:14:51.019Z,1.57
2022-12-11T12:17:29.090Z,1.40
2022-12-11T12:20:11.100Z,1.80
2022-12-11T12:23:03.069Z,1.70
2022-12-11T12:25:43.092Z,1.70
2022-12-11T12:28:28.922Z,2.07
2022-12-11T12:31:15.547Z,1.77
2022-12-11T12:33:56.804Z,2.10
2022-12-11T12:36:29.123Z,2.07
2022-12-11T12:39:02.412Z,1.90
2022-12-11T12:41:38.841Z,2.20
2022-12-11T12:44:17.524Z,2.73
2022-12-11T12:46:52.688Z,2.57
2022-12-11T12:49:39.085Z,2.63
2022-12-11T12:52:08.979Z,2.30
2022-12-11T12:54:39.702Z,2.60
2022-12-11T12:57:09.395Z,2.27
2022-12-11T12:59:38.194Z,2.30
2022-12-11T13:02:09.241Z,2.30
2022-12-11T13:04:55.699Z,2.43
2022-12-11T13:07:30.087Z,2.30
2022-12-11T13:10:07.403Z,1.80
2022-12-11T13:12:43.382Z,2.10
2022-12-11T13:15:41.592Z,2.00
2022-12-11T13:18:47.840Z,1.80
2022-12-11T13:21:34.154Z,2.00
2022-12-11T13:24:25.939Z,2.40
2022-12-11T13:26:55.204Z,2.30
2022-12-11T13:29:37.035Z,1.87
2022-12-11T13:32:21.207Z,2.17
2022-12-11T13:34:54.036Z,1.97
2022-12-11T13:37:26.887Z,1.87
2022-12-11T13:39:54.630Z,1.80
2022-12-11T13:42:28.337Z,2.27
2022-12-11T13:44:56.097Z,2.10
2022-12-11T13:47:24.065Z,2.10
2022-12-11T13:49:55.637Z,1.83
2022-12-11T13:52:25.760Z,2.13
2022-12-11T13:54:55.468Z,2.70
2022-12-11T13:57:26.149Z,2.83
2022-12-11T13:59:55.770Z,2.50
2022-12-11T14:02:26.258Z,2.80
2022-12-11T14:04:56.109Z,2.70
2022-12-11T14:07:27.158Z,2.80
2022-12-11T14:10:00.184Z,2.43
2022-12-11T14:12:30.283Z,2.70
2022-12-11T14:14:59.255Z,2.63
2022-12-11T14:17:29.139Z,2.90
2022-12-11T14:19:59.357Z,2.50
2022-12-11T14:22:28.633Z,3.23
2022-12-11T14:24:57.912Z,2.70
2022-12-11T14:27:26.312Z,2.57
2022-12-11T14:29:55.479Z,2.50
2022-12-11T14:32:30.163Z,2.63
2022-12-11T14:34:58.413Z,2.77
2022-12-11T14:37:28.532Z,2.80
2022-12-11T14:39:59.390Z,2.47
2022-12-11T14:42:29.854Z,2.47
2022-12-11T14:45:03.444Z,1.97
2022-12-11T14:47:34.285Z,2.23
2022-12-11T14:50:05.112Z,2.37
2022-12-11T14:52:35.291Z,2.30
2022-12-11T14:55:07.416Z,2.20
2022-12-11T14:57:35.566Z,2.10
2022-12-11T15:00:06.212Z,2.00
2022-12-11T15:02:35.439Z,2.17
2022-12-11T15:05:13.530Z,2.07
2022-12-11T15:07:42.201Z,1.80
2022-12-11T15:10:23.635Z,2.07
2022-12-11T15:12:51.504Z,1.80
2022-12-11T15:15:20.820Z,2.20
2022-12-11T15:17:52.843Z,2.20
2022-12-11T15:20:24.316Z,2.37
2022-12-11T15:22:52.226Z,2.20
2022-12-11T15:25:21.973Z,2.10
2022-12-11T15:27:53.028Z,2.23
2022-12-11T15:30:34.522Z,2.63
2022-12-11T15:33:22.155Z,3.53
2022-12-11T15:35:58.458Z,3.67
2022-12-11T15:38:34.950Z,3.40
2022-12-11T15:41:03.140Z,3.13
2022-12-11T15:43:39.578Z,3.13
2022-12-11T15:46:08.773Z,2.70
2022-12-11T15:48:36.549Z,3.10
2022-12-11T15:51:04.789Z,2.77
2022-12-11T15:53:32.505Z,3.20
2022-12-11T15:56:00.737Z,2.77
2022-12-11T15:58:28.821Z,3.13
2022-12-11T16:00:57.736Z,2.93
2022-12-11T16:03:26.945Z,2.40
2022-12-11T16:05:54.912Z,3.53
2022-12-11T16:08:24.428Z,2.90
2022-12-11T16:10:53.626Z,3.03
2022-12-11T16:13:21.646Z,2.70
2022-12-11T16:15:50.637Z,2.40
2022-12-11T16:18:22.243Z,2.43
2022-12-11T16:20:52.393Z,2.33
2022-12-11T16:23:20.211Z,2.50
2022-12-11T16:25:48.040Z,2.17
2022-12-11T16:28:17.143Z,2.20
2022-12-11T16:30:45.453Z,2.10
2022-12-11T16:33:13.811Z,2.20
2022-12-11T16:35:42.693Z,2.70
2022-12-11T16:38:12.926Z,2.80
2022-12-11T16:40:41.408Z,2.97
2022-12-11T16:43:09.428Z,3.43
2022-12-11T16:45:37.076Z,3.50
2022-12-11T16:48:05.712Z,3.50
2022-12-11T16:50:33.409Z,3.40
2022-12-11T16:53:01.053Z,3.70
2022-12-11T16:55:30.138Z,3.83
2022-12-11T16:57:57.833Z,4.50
2022-12-11T17:00:25.643Z,4.87
2022-12-11T17:02:53.430Z,4.20
2022-12-11T17:05:22.608Z,3.97
2022-12-11T17:07:50.752Z,4.40
2022-12-11T17:10:18.617Z,4.93
2022-12-11T17:12:47.715Z,6.17
2022-12-11T17:15:15.564Z,7.20
2022-12-11T17:17:43.246Z,6.00
2022-12-11T17:20:11.650Z,5.57
2022-12-11T17:22:39.478Z,5.70
2022-12-11T17:25:08.011Z,5.53
2022-12-11T17:27:35.711Z,5.23
2022-12-11T17:30:05.305Z,4.87
2022-12-11T17:32:32.981Z,5.77
2022-12-11T17:35:00.656Z,6.17
2022-12-11T17:37:28.338Z,6.30
2022-12-11T17:39:56.222Z,6.00
2022-12-11T17:42:23.965Z,5.67
2022-12-11T17:44:51.734Z,5.13
2022-12-11T17:47:21.050Z,4.67
2022-12-11T17:49:48.711Z,3.73
2022-12-11T17:52:16.401Z,3.63
2022-12-11T17:54:44.514Z,2.80
2022-12-11T17:57:12.238Z,2.90
2022-12-11T17:59:40.014Z,4.00
2022-12-11T18:02:07.826Z,3.60
2022-12-11T18:04:38.778Z,3.33
2022-12-11T18:07:06.716Z,3.90
2022-12-11T18:09:34.462Z,3.30
2022-12-11T18:12:02.207Z,3.70
2022-12-11T18:14:29.926Z,3.93
2022-12-11T18:16:57.567Z,4.07
2022-12-11T18:19:26.965Z,4.33
2022-12-11T18:21:56.290Z,4.00
2022-12-11T18:24:25.821Z,3.50
2022-12-11T18:26:53.526Z,3.40
2022-12-11T18:29:21.163Z,3.30
2022-12-11T18:31:48.990Z,3.50
2022-12-11T18:34:16.743Z,4.03
2022-12-11T18:36:44.545Z,3.70
2022-12-11T18:39:15.126Z,3.67
2022-12-11T18:41:42.812Z,3.63
2022-12-11T18:44:10.610Z,3.40
2022-12-11T18:46:39.387Z,3.83
2022-12-11T18:49:07.227Z,3.40
2022-12-11T18:51:35.034Z,3.27
2022-12-11T18:54:02.822Z,3.57
2022-12-11T18:56:31.877Z,3.80
2022-12-11T18:58:59.588Z,4.23
2022-12-11T19:01:29.785Z,3.97
2022-12-11T19:04:03.527Z,4.03
2022-12-11T19:06:35.520Z,5.17
2022-12-11T19:09:05.144Z,5.37
2022-12-11T19:11:35.703Z,6.23
2022-12-11T19:14:03.400Z,7.00
2022-12-11T19:16:33.600Z,7.30
2022-12-11T19:19:03.270Z,6.53
2022-12-11T19:21:31.687Z,5.93
2022-12-11T19:23:59.662Z,4.87
2022-12-11T19:26:27.839Z,4.30
2022-12-11T19:28:59.996Z,4.27
2022-12-11T19:31:30.738Z,4.87
2022-12-11T19:33:58.955Z,4.37
2022-12-11T19:36:28.282Z,4.50
2022-12-11T19:39:01.173Z,4.53
2022-12-11T19:41:30.149Z,4.57
2022-12-11T19:43:59.746Z,5.40
2022-12-11T19:46:29.427Z,5.60
2022-12-11T19:48:59.109Z,5.17
2022-12-11T19:51:29.319Z,4.83
2022-12-11T19:53:57.313Z,5.07
2022-12-11T19:56:25.138Z,5.40
2022-12-11T19:58:52.910Z,4.53
2022-12-11T20:01:24.835Z,5.23
2022-12-11T20:03:54.181Z,4.87
2022-12-11T20:06:22.003Z,5.17
2022-12-11T20:08:49.804Z,5.93
2022-12-11T20:11:19.173Z,5.43
2022-12-11T20:13:47.139Z,5.20
2022-12-11T20:16:15.639Z,5.00
2022-12-11T20:18:43.462Z,5.57
2022-12-11T20:21:14.382Z,5.33
2022-12-11T20:23:42.716Z,6.23
2022-12-11T20:26:11.983Z,7.73
2022-12-11T20:28:39.672Z,13.47
2022-12-11T20:31:08.374Z,13.60
2022-12-11T20:33:36.135Z,10.47
2022-12-11T20:36:08.139Z,8.37
2022-12-11T20:38:37.854Z,7.40
2022-12-11T20:41:06.093Z,7.53
2022-12-11T20:43:33.814Z,7.53
2022-12-11T20:46:01.512Z,7.40
2022-12-11T20:48:29.349Z,7.17
2022-12-11T20:51:00.764Z,5.90
2022-12-11T20:53:28.589Z,5.57
2022-12-11T20:55:57.728Z,4.57
2022-12-11T20:58:25.445Z,4.43
2022-12-11T21:00:53.246Z,3.50
2022-12-11T21:03:20.928Z,3.87
2022-12-11T21:05:48.660Z,3.73
2022-12-11T21:08:16.472Z,3.37
2022-12-11T21:10:46.246Z,3.90
2022-12-11T21:13:16.674Z,3.37
2022-12-11T21:15:44.839Z,3.67
2022-12-11T21:18:12.561Z,3.40
2022-12-11T21:20:40.236Z,3.47
2022-12-11T21:23:07.963Z,3.50
2022-12-11T21:25:40.450Z,4.10
2022-12-11T21:28:08.507Z,4.13
2022-12-11T21:30:40.117Z,4.40
2022-12-11T21:33:08.071Z,4.57
2022-12-11T21:35:35.787Z,4.43
2022-12-11T21:38:03.623Z,5.00
2022-12-11T21:40:31.730Z,4.60
2022-12-11T21:42:59.461Z,4.43
2022-12-11T21:48:16.529Z,4.00
2022-12-11T21:50:44.332Z,4.00
2022-12-11T21:53:12.139Z,3.70
2022-12-11T21:55:42.197Z,4.33
2022-12-11T21:58:10.312Z,4.63
2022-12-11T22:00:38.822Z,3.77
2022-12-11T22:03:07.418Z,3.70
2022-12-11T22:05:36.591Z,3.83
2022-12-11T22:08:05.639Z,3.83
2022-12-11T22:10:33.448Z,4.50
2022-12-11T22:13:01.162Z,4.27
2022-12-11T22:15:28.832Z,4.13
2022-12-11T22:17:56.511Z,4.00
2022-12-11T22:20:24.204Z,4.03
2022-12-11T22:22:53.216Z,3.70
2022-12-11T22:25:20.927Z,3.70
2022-12-11T22:27:48.631Z,3.53
2022-12-11T22:30:16.369Z,3.90
2022-12-11T22:32:45.154Z,4.57
2022-12-11T22:35:13.172Z,4.30
2022-12-11T22:37:41.200Z,4.63
2022-12-11T22:40:10.852Z,5.23
2022-12-11T22:42:38.603Z,4.67
2022-12-11T22:45:07.240Z,4.53
2022-12-11T22:47:34.912Z,5.40
2022-12-11T22:50:02.595Z,5.23
2022-12-11T22:52:30.318Z,5.50
2022-12-11T22:54:58.065Z,5.33
2022-12-11T22:57:27.127Z,5.50
2022-12-11T22:59:56.869Z,5.43
2022-12-11T23:02:24.604Z,5.63
2022-12-11T23:04:52.363Z,5.80
2022-12-11T23:07:20.082Z,6.27
2022-12-11T23:09:47.938Z,5.90
2022-12-11T23:12:15.600Z,6.07
2022-12-11T23:14:44.586Z,5.63
2022-12-11T23:17:12.274Z,6.00
2022-12-11T23:19:40.316Z,5.77
2022-12-11T23:22:08.112Z,5.77
2022-12-11T23:24:35.877Z,6.00
2022-12-11T23:27:03.575Z,6.20
2022-12-11T23:29:31.268Z,6.40
2022-12-11T23:32:00.277Z,6.10
2022-12-11T23:34:28.110Z,5.70
2022-12-11T23:36:55.780Z,6.33
2022-12-11T23:39:23.549Z,6.43
2022-12-11T23:41:51.239Z,6.97
2022-12-11T23:44:23.774Z,6.50
2022-12-11T23:46:51.473Z,5.50
2022-12-11T23:49:20.540Z,6.17
2022-12-11T23:51:48.208Z,6.30
2022-12-11T23:54:15.867Z,6.00
2022-12-11T23:56:43.775Z,5.73
2022-12-11T23:59:13.146Z,5.27
